sensor_id;sensor_type;location;lat;lon;timestamp;temperature;humidity
9425;DHT22;17139;52.140;11.636;2023-07-28T00:02:02;17.50;65.90
9425;DHT22;17139;52.140;11.636;2023-07-28T00:04:30;17.30;66.10
9425;DHT22;17139;52.140;11.636;2023-07-28T00:06:57;17.20;66.20
9425;DHT22;17139;52.140;11.636;2023-07-28T00:09:24;17.10;66.30
9425;DHT22;17139;52.140;11.636;2023-07-28T00:11:51;17.00;66.30
9425;DHT22;17139;52.140;11.636;2023-07-28T00:14:18;17.00;66.30
9425;DHT22;17139;52.140;11.636;2023-07-28T00:16:45;17.00;66.40
9425;DHT22;17139;52.140;11.636;2023-07-28T00:19:12;17.00;66.70
9425;DHT22;17139;52.140;11.636;2023-07-28T00:21:41;17.00;66.30
9425;DHT22;17139;52.140;11.636;2023-07-28T00:24:08;17.00;66.40
9425;DHT22;17139;52.140;11.636;2023-07-28T00:26:35;17.20;67.30
9425;DHT22;17139;52.140;11.636;2023-07-28T00:29:02;17.20;66.20
9425;DHT22;17139;52.140;11.636;2023-07-28T00:31:31;17.10;66.10
9425;DHT22;17139;52.140;11.636;2023-07-28T00:33:59;17.00;66.30
9425;DHT22;17139;52.140;11.636;2023-07-28T00:36:26;17.00;66.40
9425;DHT22;17139;52.140;11.636;2023-07-28T00:38:54;17.00;66.50
9425;DHT22;17139;52.140;11.636;2023-07-28T00:41:21;16.90;66.30
9425;DHT22;17139;52.140;11.636;2023-07-28T00:43:48;16.90;66.40
9425;DHT22;17139;52.140;11.636;2023-07-28T00:46:16;16.90;66.30
9425;DHT22;17139;52.140;11.636;2023-07-28T00:48:43;16.90;66.40
9425;DHT22;17139;52.140;11.636;2023-07-28T00:51:10;17.30;67.40
9425;DHT22;17139;52.140;11.636;2023-07-28T00:53:38;17.30;66.40
9425;DHT22;17139;52.140;11.636;2023-07-28T00:56:07;17.20;66.40
9425;DHT22;17139;52.140;11.636;2023-07-28T00:58:34;18.00;67.10
9425;DHT22;17139;52.140;11.636;2023-07-28T01:01:02;17.60;65.90
9425;DHT22;17139;52.140;11.636;2023-07-28T01:03:29;17.40;66.20
9425;DHT22;17139;52.140;11.636;2023-07-28T01:06:06;17.30;66.40
9425;DHT22;17139;52.140;11.636;2023-07-28T01:08:42;17.20;66.60
9425;DHT22;17139;52.140;11.636;2023-07-28T01:11:14;17.20;66.60
9425;DHT22;17139;52.140;11.636;2023-07-28T01:13:41;17.10;66.50
9425;DHT22;17139;52.140;11.636;2023-07-28T01:16:08;17.10;66.60
9425;DHT22;17139;52.140;11.636;2023-07-28T01:18:36;17.10;66.60
9425;DHT22;17139;52.140;11.636;2023-07-28T01:21:07;17.10;66.90
9425;DHT22;17139;52.140;11.636;2023-07-28T01:23:41;17.20;66.60
9425;DHT22;17139;52.140;11.636;2023-07-28T01:26:12;17.20;66.50
9425;DHT22;17139;52.140;11.636;2023-07-28T01:28:44;17.90;67.10
9425;DHT22;17139;52.140;11.636;2023-07-28T01:31:12;17.70;66.20
9425;DHT22;17139;52.140;11.636;2023-07-28T01:33:39;17.50;66.20
9425;DHT22;17139;52.140;11.636;2023-07-28T01:36:06;17.30;66.40
9425;DHT22;17139;52.140;11.636;2023-07-28T01:38:32;17.30;66.70
9425;DHT22;17139;52.140;11.636;2023-07-28T01:40:59;17.20;66.50
9425;DHT22;17139;52.140;11.636;2023-07-28T01:43:27;17.20;66.50
9425;DHT22;17139;52.140;11.636;2023-07-28T01:45:55;17.20;66.60
9425;DHT22;17139;52.140;11.636;2023-07-28T01:48:22;17.10;66.60
9425;DHT22;17139;52.140;11.636;2023-07-28T01:50:49;17.10;66.60
9425;DHT22;17139;52.140;11.636;2023-07-28T01:53:16;17.10;66.80
9425;DHT22;17139;52.140;11.636;2023-07-28T01:55:43;17.10;67.00
9425;DHT22;17139;52.140;11.636;2023-07-28T01:58:10;17.50;67.80
9425;DHT22;17139;52.140;11.636;2023-07-28T02:00:37;17.30;66.40
9425;DHT22;17139;52.140;11.636;2023-07-28T02:03:06;17.20;66.50
9425;DHT22;17139;52.140;11.636;2023-07-28T02:05:33;17.10;66.70
9425;DHT22;17139;52.140;11.636;2023-07-28T02:07:59;17.00;66.80
9425;DHT22;17139;52.140;11.636;2023-07-28T02:10:27;17.10;67.00
9425;DHT22;17139;52.140;11.636;2023-07-28T02:12:55;17.10;67.00
9425;DHT22;17139;52.140;11.636;2023-07-28T02:15:22;17.20;67.00
9425;DHT22;17139;52.140;11.636;2023-07-28T02:17:50;17.30;67.00
9425;DHT22;17139;52.140;11.636;2023-07-28T02:20:19;17.30;66.80
9425;DHT22;17139;52.140;11.636;2023-07-28T02:22:46;17.90;67.20
9425;DHT22;17139;52.140;11.636;2023-07-28T02:25:13;17.80;66.20
9425;DHT22;17139;52.140;11.636;2023-07-28T02:27:40;17.60;66.30
9425;DHT22;17139;52.140;11.636;2023-07-28T02:30:07;17.50;66.50
9425;DHT22;17139;52.140;11.636;2023-07-28T02:32:35;17.50;66.60
9425;DHT22;17139;52.140;11.636;2023-07-28T02:35:02;17.40;66.60
9425;DHT22;17139;52.140;11.636;2023-07-28T02:37:30;17.40;66.90
9425;DHT22;17139;52.140;11.636;2023-07-28T02:39:58;17.40;66.90
9425;DHT22;17139;52.140;11.636;2023-07-28T02:42:25;17.40;66.90
9425;DHT22;17139;52.140;11.636;2023-07-28T02:44:52;17.40;66.80
9425;DHT22;17139;52.140;11.636;2023-07-28T02:47:19;17.40;66.70
9425;DHT22;17139;52.140;11.636;2023-07-28T02:49:46;17.40;66.70
9425;DHT22;17139;52.140;11.636;2023-07-28T02:52:13;17.40;66.80
9425;DHT22;17139;52.140;11.636;2023-07-28T02:54:41;17.40;66.80
9425;DHT22;17139;52.140;11.636;2023-07-28T02:57:08;17.40;67.10
9425;DHT22;17139;52.140;11.636;2023-07-28T02:59:35;18.00;67.00
9425;DHT22;17139;52.140;11.636;2023-07-28T03:02:02;17.90;66.20
9425;DHT22;17139;52.140;11.636;2023-07-28T03:04:29;17.70;66.40
9425;DHT22;17139;52.140;11.636;2023-07-28T03:06:56;17.60;66.60
9425;DHT22;17139;52.140;11.636;2023-07-28T03:09:23;17.50;66.70
9425;DHT22;17139;52.140;11.636;2023-07-28T03:11:51;17.50;66.90
9425;DHT22;17139;52.140;11.636;2023-07-28T03:14:18;17.40;66.90
9425;DHT22;17139;52.140;11.636;2023-07-28T03:16:45;17.30;66.90
9425;DHT22;17139;52.140;11.636;2023-07-28T03:19:12;17.30;66.90
9425;DHT22;17139;52.140;11.636;2023-07-28T03:21:39;17.30;66.90
9425;DHT22;17139;52.140;11.636;2023-07-28T03:24:06;18.20;67.10
9425;DHT22;17139;52.140;11.636;2023-07-28T03:26:33;17.80;66.30
9425;DHT22;17139;52.140;11.636;2023-07-28T03:29:01;17.90;67.20
9425;DHT22;17139;52.140;11.636;2023-07-28T03:31:28;17.70;66.70
9425;DHT22;17139;52.140;11.636;2023-07-28T03:33:55;17.60;67.10
9425;DHT22;17139;52.140;11.636;2023-07-28T03:36:22;17.60;67.20
9425;DHT22;17139;52.140;11.636;2023-07-28T03:38:49;17.50;67.10
9425;DHT22;17139;52.140;11.636;2023-07-28T03:41:16;17.50;67.00
9425;DHT22;17139;52.140;11.636;2023-07-28T03:43:43;17.50;67.60
9425;DHT22;17139;52.140;11.636;2023-07-28T03:46:12;17.50;66.90
9425;DHT22;17139;52.140;11.636;2023-07-28T03:48:39;17.50;67.10
9425;DHT22;17139;52.140;11.636;2023-07-28T03:51:06;17.50;67.00
9425;DHT22;17139;52.140;11.636;2023-07-28T03:53:33;17.80;67.50
9425;DHT22;17139;52.140;11.636;2023-07-28T03:56:01;17.80;66.50
9425;DHT22;17139;52.140;11.636;2023-07-28T03:58:28;17.70;66.60
9425;DHT22;17139;52.140;11.636;2023-07-28T04:00:55;18.60;66.50
9425;DHT22;17139;52.140;11.636;2023-07-28T04:03:24;18.20;65.70
9425;DHT22;17139;52.140;11.636;2023-07-28T04:05:51;17.90;66.10
9425;DHT22;17139;52.140;11.636;2023-07-28T04:08:18;17.70;66.60
9425;DHT22;17139;52.140;11.636;2023-07-28T04:10:45;17.60;66.90
9425;DHT22;17139;52.140;11.636;2023-07-28T04:13:12;17.50;67.20
9425;DHT22;17139;52.140;11.636;2023-07-28T04:15:39;17.90;67.60
9425;DHT22;17139;52.140;11.636;2023-07-28T04:18:06;18.60;66.50
9425;DHT22;17139;52.140;11.636;2023-07-28T04:20:34;18.80;65.70
9425;DHT22;17139;52.140;11.636;2023-07-28T04:23:01;18.40;65.60
9425;DHT22;17139;52.140;11.636;2023-07-28T04:25:28;18.30;66.40
9425;DHT22;17139;52.140;11.636;2023-07-28T04:27:55;18.10;66.40
9425;DHT22;17139;52.140;11.636;2023-07-28T04:30:22;17.80;66.70
9425;DHT22;17139;52.140;11.636;2023-07-28T04:32:49;17.70;67.00
9425;DHT22;17139;52.140;11.636;2023-07-28T04:35:16;17.60;67.30
9425;DHT22;17139;52.140;11.636;2023-07-28T04:37:45;17.60;67.30
9425;DHT22;17139;52.140;11.636;2023-07-28T04:40:12;17.50;67.30
9425;DHT22;17139;52.140;11.636;2023-07-28T04:42:39;17.50;67.50
9425;DHT22;17139;52.140;11.636;2023-07-28T04:45:07;17.50;67.40
9425;DHT22;17139;52.140;11.636;2023-07-28T04:47:34;17.50;67.40
9425;DHT22;17139;52.140;11.636;2023-07-28T04:50:01;18.40;67.00
9425;DHT22;17139;52.140;11.636;2023-07-28T04:52:28;18.10;66.30
9425;DHT22;17139;52.140;11.636;2023-07-28T04:54:57;18.10;67.00
9425;DHT22;17139;52.140;11.636;2023-07-28T04:57:24;18.00;66.80
9425;DHT22;17139;52.140;11.636;2023-07-28T04:59:51;17.80;67.10
9425;DHT22;17139;52.140;11.636;2023-07-28T05:02:18;17.70;67.30
9425;DHT22;17139;52.140;11.636;2023-07-28T05:04:45;17.70;67.70
9425;DHT22;17139;52.140;11.636;2023-07-28T05:07:12;17.80;67.50
9425;DHT22;17139;52.140;11.636;2023-07-28T05:09:39;17.80;67.30
9425;DHT22;17139;52.140;11.636;2023-07-28T05:12:08;17.80;67.30
9425;DHT22;17139;52.140;11.636;2023-07-28T05:14:35;17.80;67.20
9425;DHT22;17139;52.140;11.636;2023-07-28T05:17:02;17.90;67.10
9425;DHT22;17139;52.140;11.636;2023-07-28T05:19:29;18.50;66.80
9425;DHT22;17139;52.140;11.636;2023-07-28T05:21:56;18.30;66.10
9425;DHT22;17139;52.140;11.636;2023-07-28T05:24:23;18.20;66.50
9425;DHT22;17139;52.140;11.636;2023-07-28T05:26:50;18.30;66.80
9425;DHT22;17139;52.140;11.636;2023-07-28T05:29:19;18.40;66.80
9425;DHT22;17139;52.140;11.636;2023-07-28T05:31:46;18.60;66.50
9425;DHT22;17139;52.140;11.636;2023-07-28T05:34:13;18.80;66.50
9425;DHT22;17139;52.140;11.636;2023-07-28T05:36:40;18.90;66.00
9425;DHT22;17139;52.140;11.636;2023-07-28T05:39:07;19.10;66.00
9425;DHT22;17139;52.140;11.636;2023-07-28T05:41:34;19.20;66.00
9425;DHT22;17139;52.140;11.636;2023-07-28T05:44:01;19.20;65.70
9425;DHT22;17139;52.140;11.636;2023-07-28T05:46:29;19.90;64.70
9425;DHT22;17139;52.140;11.636;2023-07-28T05:48:57;19.90;64.50
9425;DHT22;17139;52.140;11.636;2023-07-28T05:51:24;19.80;64.90
9425;DHT22;17139;52.140;11.636;2023-07-28T05:53:52;20.60;63.20
9425;DHT22;17139;52.140;11.636;2023-07-28T05:56:19;20.20;63.60
9425;DHT22;17139;52.140;11.636;2023-07-28T05:58:46;20.00;64.30
9425;DHT22;17139;52.140;11.636;2023-07-28T06:01:13;19.70;64.70
9425;DHT22;17139;52.140;11.636;2023-07-28T06:03:41;19.60;64.90
9425;DHT22;17139;52.140;11.636;2023-07-28T06:06:08;19.50;65.30
9425;DHT22;17139;52.140;11.636;2023-07-28T06:08:35;19.50;65.60
9425;DHT22;17139;52.140;11.636;2023-07-28T06:11:03;19.50;65.70
9425;DHT22;17139;52.140;11.636;2023-07-28T06:13:31;19.50;65.70
9425;DHT22;17139;52.140;11.636;2023-07-28T06:15:58;20.20;64.40
9425;DHT22;17139;52.140;11.636;2023-07-28T06:18:26;20.10;64.20
9425;DHT22;17139;52.140;11.636;2023-07-28T06:20:54;20.20;64.20
9425;DHT22;17139;52.140;11.636;2023-07-28T06:23:21;20.10;64.30
9425;DHT22;17139;52.140;11.636;2023-07-28T06:25:48;20.10;65.00
9425;DHT22;17139;52.140;11.636;2023-07-28T06:28:15;20.10;64.90
9425;DHT22;17139;52.140;11.636;2023-07-28T06:30:42;20.20;65.00
9425;DHT22;17139;52.140;11.636;2023-07-28T06:33:09;20.20;64.70
9425;DHT22;17139;52.140;11.636;2023-07-28T06:35:37;20.30;64.80
9425;DHT22;17139;52.140;11.636;2023-07-28T06:38:05;20.40;64.70
9425;DHT22;17139;52.140;11.636;2023-07-28T06:40:32;20.40;64.80
9425;DHT22;17139;52.140;11.636;2023-07-28T06:43:00;20.40;64.90
9425;DHT22;17139;52.140;11.636;2023-07-28T06:45:27;21.40;62.30
9425;DHT22;17139;52.140;11.636;2023-07-28T06:47:54;21.20;62.90
9425;DHT22;17139;52.140;11.636;2023-07-28T06:50:21;21.30;62.20
9425;DHT22;17139;52.140;11.636;2023-07-28T06:52:49;21.20;62.20
9425;DHT22;17139;52.140;11.636;2023-07-28T06:55:18;21.00;63.50
9425;DHT22;17139;52.140;11.636;2023-07-28T06:57:47;21.50;61.20
9425;DHT22;17139;52.140;11.636;2023-07-28T07:00:15;21.80;60.20
9425;DHT22;17139;52.140;11.636;2023-07-28T07:02:43;21.20;61.40
9425;DHT22;17139;52.140;11.636;2023-07-28T07:05:10;21.60;60.60
9425;DHT22;17139;52.140;11.636;2023-07-28T07:07:37;21.10;61.80
9425;DHT22;17139;52.140;11.636;2023-07-28T07:10:05;20.80;62.80
9425;DHT22;17139;52.140;11.636;2023-07-28T07:12:35;20.60;63.60
9425;DHT22;17139;52.140;11.636;2023-07-28T07:15:02;20.50;64.00
9425;DHT22;17139;52.140;11.636;2023-07-28T07:17:30;20.50;64.00
9425;DHT22;17139;52.140;11.636;2023-07-28T07:19:57;20.60;63.90
9425;DHT22;17139;52.140;11.636;2023-07-28T07:22:26;20.50;63.70
9425;DHT22;17139;52.140;11.636;2023-07-28T07:24:53;20.40;63.80
9425;DHT22;17139;52.140;11.636;2023-07-28T07:27:23;20.30;63.90
9425;DHT22;17139;52.140;11.636;2023-07-28T07:29:52;20.30;64.20
9425;DHT22;17139;52.140;11.636;2023-07-28T07:32:19;20.80;62.80
9425;DHT22;17139;52.140;11.636;2023-07-28T07:34:46;20.70;63.00
9425;DHT22;17139;52.140;11.636;2023-07-28T07:37:13;21.20;61.80
9425;DHT22;17139;52.140;11.636;2023-07-28T07:39:40;21.00;62.20
9425;DHT22;17139;52.140;11.636;2023-07-28T07:42:10;20.70;62.80
9425;DHT22;17139;52.140;11.636;2023-07-28T07:44:39;20.60;63.20
9425;DHT22;17139;52.140;11.636;2023-07-28T07:47:13;20.50;63.60
9425;DHT22;17139;52.140;11.636;2023-07-28T07:49:40;20.50;63.70
9425;DHT22;17139;52.140;11.636;2023-07-28T07:52:08;20.20;63.80
9425;DHT22;17139;52.140;11.636;2023-07-28T07:54:36;20.30;64.20
9425;DHT22;17139;52.140;11.636;2023-07-28T07:57:03;20.80;63.10
9425;DHT22;17139;52.140;11.636;2023-07-28T07:59:30;20.70;63.20
9425;DHT22;17139;52.140;11.636;2023-07-28T08:01:59;21.10;62.60
9425;DHT22;17139;52.140;11.636;2023-07-28T08:04:30;20.90;62.90
9425;DHT22;17139;52.140;11.636;2023-07-28T08:06:57;20.80;63.30
9425;DHT22;17139;52.140;11.636;2023-07-28T08:09:24;20.80;63.40
9425;DHT22;17139;52.140;11.636;2023-07-28T08:11:52;20.90;63.80
9425;DHT22;17139;52.140;11.636;2023-07-28T08:14:19;21.00;63.60
9425;DHT22;17139;52.140;11.636;2023-07-28T08:16:46;21.00;63.40
9425;DHT22;17139;52.140;11.636;2023-07-28T08:19:13;21.10;63.30
9425;DHT22;17139;52.140;11.636;2023-07-28T08:21:42;21.20;63.10
9425;DHT22;17139;52.140;11.636;2023-07-28T08:24:10;22.10;60.20
9425;DHT22;17139;52.140;11.636;2023-07-28T08:26:37;21.70;61.30
9425;DHT22;17139;52.140;11.636;2023-07-28T08:29:04;22.00;60.40
9425;DHT22;17139;52.140;11.636;2023-07-28T08:31:31;21.80;61.30
9425;DHT22;17139;52.140;11.636;2023-07-28T08:33:58;21.60;61.70
9425;DHT22;17139;52.140;11.636;2023-07-28T08:36:25;21.50;62.00
9425;DHT22;17139;52.140;11.636;2023-07-28T08:38:53;21.40;62.30
9425;DHT22;17139;52.140;11.636;2023-07-28T08:41:20;21.40;62.40
9425;DHT22;17139;52.140;11.636;2023-07-28T08:43:47;21.40;62.50
9425;DHT22;17139;52.140;11.636;2023-07-28T08:46:16;21.40;62.70
9425;DHT22;17139;52.140;11.636;2023-07-28T08:48:43;22.20;60.10
9425;DHT22;17139;52.140;11.636;2023-07-28T08:51:13;22.00;60.90
9425;DHT22;17139;52.140;11.636;2023-07-28T08:53:40;22.40;60.10
9425;DHT22;17139;52.140;11.636;2023-07-28T08:56:09;22.20;60.40
9425;DHT22;17139;52.140;11.636;2023-07-28T08:58:36;22.20;60.70
9425;DHT22;17139;52.140;11.636;2023-07-28T09:01:03;22.00;60.90
9425;DHT22;17139;52.140;11.636;2023-07-28T09:03:30;22.00;61.40
9425;DHT22;17139;52.140;11.636;2023-07-28T09:06:00;22.00;61.80
9425;DHT22;17139;52.140;11.636;2023-07-28T09:08:28;22.20;61.60
9425;DHT22;17139;52.140;11.636;2023-07-28T09:11:01;22.20;61.30
9425;DHT22;17139;52.140;11.636;2023-07-28T09:13:36;22.30;61.10
9425;DHT22;17139;52.140;11.636;2023-07-28T09:16:03;23.10;58.60
9425;DHT22;17139;52.140;11.636;2023-07-28T09:18:31;22.90;59.60
9425;DHT22;17139;52.140;11.636;2023-07-28T09:20:59;23.10;58.60
9425;DHT22;17139;52.140;11.636;2023-07-28T09:23:30;23.00;59.50
9425;DHT22;17139;52.140;11.636;2023-07-28T09:25:59;22.90;59.70
9425;DHT22;17139;52.140;11.636;2023-07-28T09:28:38;22.80;60.00
9425;DHT22;17139;52.140;11.636;2023-07-28T09:31:06;22.80;60.20
9425;DHT22;17139;52.140;11.636;2023-07-28T09:33:35;22.70;60.30
9425;DHT22;17139;52.140;11.636;2023-07-28T09:36:09;22.70;60.40
9425;DHT22;17139;52.140;11.636;2023-07-28T09:38:37;22.70;60.20
9425;DHT22;17139;52.140;11.636;2023-07-28T09:41:07;22.80;60.20
9425;DHT22;17139;52.140;11.636;2023-07-28T09:43:38;23.40;58.10
9425;DHT22;17139;52.140;11.636;2023-07-28T09:46:06;23.30;58.70
9425;DHT22;17139;52.140;11.636;2023-07-28T09:48:34;23.40;58.10
9425;DHT22;17139;52.140;11.636;2023-07-28T09:51:06;23.30;58.80
9425;DHT22;17139;52.140;11.636;2023-07-28T09:53:40;23.50;58.10
9425;DHT22;17139;52.140;11.636;2023-07-28T09:56:08;23.20;58.90
9425;DHT22;17139;52.140;11.636;2023-07-28T09:58:38;23.10;59.40
9425;DHT22;17139;52.140;11.636;2023-07-28T10:01:08;23.10;59.60
9425;DHT22;17139;52.140;11.636;2023-07-28T10:03:36;23.10;59.40
9425;DHT22;17139;52.140;11.636;2023-07-28T10:06:04;23.10;59.10
9425;DHT22;17139;52.140;11.636;2023-07-28T10:08:32;23.30;57.90
9425;DHT22;17139;52.140;11.636;2023-07-28T10:11:00;23.30;58.70
9425;DHT22;17139;52.140;11.636;2023-07-28T10:13:32;23.20;59.10
9425;DHT22;17139;52.140;11.636;2023-07-28T10:16:07;23.80;56.70
9425;DHT22;17139;52.140;11.636;2023-07-28T10:18:34;23.60;57.90
9425;DHT22;17139;52.140;11.636;2023-07-28T10:21:05;23.70;56.60
9425;DHT22;17139;52.140;11.636;2023-07-28T10:23:34;23.60;57.60
9425;DHT22;17139;52.140;11.636;2023-07-28T10:26:02;23.40;58.10
9425;DHT22;17139;52.140;11.636;2023-07-28T10:28:32;23.90;55.70
9425;DHT22;17139;52.140;11.636;2023-07-28T10:31:03;23.90;55.80
9425;DHT22;17139;52.140;11.636;2023-07-28T10:33:33;23.50;57.20
9425;DHT22;17139;52.140;11.636;2023-07-28T10:36:12;23.30;57.50
9425;DHT22;17139;52.140;11.636;2023-07-28T10:38:39;23.20;58.00
9425;DHT22;17139;52.140;11.636;2023-07-28T10:41:08;23.10;58.70
9425;DHT22;17139;52.140;11.636;2023-07-28T10:43:36;23.10;58.80
9425;DHT22;17139;52.140;11.636;2023-07-28T10:46:05;23.10;58.70
9425;DHT22;17139;52.140;11.636;2023-07-28T10:48:36;23.10;58.60
9425;DHT22;17139;52.140;11.636;2023-07-28T10:51:03;23.00;58.70
9425;DHT22;17139;52.140;11.636;2023-07-28T10:53:32;23.00;59.00
9425;DHT22;17139;52.140;11.636;2023-07-28T10:56:01;23.50;56.40
9425;DHT22;17139;52.140;11.636;2023-07-28T10:58:29;23.30;57.50
9425;DHT22;17139;52.140;11.636;2023-07-28T11:00:56;23.50;56.90
9425;DHT22;17139;52.140;11.636;2023-07-28T11:03:23;23.50;57.60
9425;DHT22;17139;52.140;11.636;2023-07-28T11:05:55;23.50;57.70
9425;DHT22;17139;52.140;11.636;2023-07-28T11:08:23;23.70;57.90
9425;DHT22;17139;52.140;11.636;2023-07-28T11:10:50;23.90;57.50
9425;DHT22;17139;52.140;11.636;2023-07-28T11:13:17;24.00;57.60
9425;DHT22;17139;52.140;11.636;2023-07-28T11:15:44;24.10;57.50
9425;DHT22;17139;52.140;11.636;2023-07-28T11:18:15;24.20;57.60
9425;DHT22;17139;52.140;11.636;2023-07-28T11:20:42;24.30;57.30
9425;DHT22;17139;52.140;11.636;2023-07-28T11:23:14;24.20;57.20
9425;DHT22;17139;52.140;11.636;2023-07-28T11:25:43;24.10;57.30
9425;DHT22;17139;52.140;11.636;2023-07-28T11:28:12;24.90;54.30
9425;DHT22;17139;52.140;11.636;2023-07-28T11:30:39;24.60;55.80
9425;DHT22;17139;52.140;11.636;2023-07-28T11:33:09;24.40;56.30
9425;DHT22;17139;52.140;11.636;2023-07-28T11:35:37;24.20;56.40
9425;DHT22;17139;52.140;11.636;2023-07-28T11:38:05;24.10;56.80
9425;DHT22;17139;52.140;11.636;2023-07-28T11:40:35;24.10;57.00
9425;DHT22;17139;52.140;11.636;2023-07-28T11:43:03;24.20;57.20
9425;DHT22;17139;52.140;11.636;2023-07-28T11:45:30;24.20;57.20
9425;DHT22;17139;52.140;11.636;2023-07-28T11:48:00;24.70;54.70
9425;DHT22;17139;52.140;11.636;2023-07-28T11:50:28;24.70;55.70
9425;DHT22;17139;52.140;11.636;2023-07-28T11:52:57;24.60;56.00
9425;DHT22;17139;52.140;11.636;2023-07-28T11:55:24;24.70;56.70
9425;DHT22;17139;52.140;11.636;2023-07-28T11:57:53;24.60;55.80
9425;DHT22;17139;52.140;11.636;2023-07-28T12:00:29;24.40;56.20
9425;DHT22;17139;52.140;11.636;2023-07-28T12:03:07;24.40;56.10
9425;DHT22;17139;52.140;11.636;2023-07-28T12:05:35;24.20;56.40
9425;DHT22;17139;52.140;11.636;2023-07-28T12:08:03;24.20;56.80
9425;DHT22;17139;52.140;11.636;2023-07-28T12:10:30;24.10;56.80
9425;DHT22;17139;52.140;11.636;2023-07-28T12:13:03;24.10;56.80
9425;DHT22;17139;52.140;11.636;2023-07-28T12:15:32;24.60;54.80
9425;DHT22;17139;52.140;11.636;2023-07-28T12:18:16;24.40;55.80
9425;DHT22;17139;52.140;11.636;2023-07-28T12:20:46;24.60;55.30
9425;DHT22;17139;52.140;11.636;2023-07-28T12:23:16;24.70;56.10
9425;DHT22;17139;52.140;11.636;2023-07-28T12:25:43;24.80;55.30
9425;DHT22;17139;52.140;11.636;2023-07-28T12:28:12;24.80;55.30
9425;DHT22;17139;52.140;11.636;2023-07-28T12:30:40;25.40;51.90
9425;DHT22;17139;52.140;11.636;2023-07-28T12:33:07;25.10;53.90
9425;DHT22;17139;52.140;11.636;2023-07-28T12:35:34;24.90;54.50
9425;DHT22;17139;52.140;11.636;2023-07-28T12:38:02;24.70;54.90
9425;DHT22;17139;52.140;11.636;2023-07-28T12:40:31;24.60;55.20
9425;DHT22;17139;52.140;11.636;2023-07-28T12:43:00;24.60;55.40
9425;DHT22;17139;52.140;11.636;2023-07-28T12:45:29;24.70;55.10
9425;DHT22;17139;52.140;11.636;2023-07-28T12:47:56;24.70;55.00
9425;DHT22;17139;52.140;11.636;2023-07-28T12:50:23;24.70;55.60
9425;DHT22;17139;52.140;11.636;2023-07-28T12:52:51;24.60;55.00
9425;DHT22;17139;52.140;11.636;2023-07-28T12:55:18;24.60;55.30
9425;DHT22;17139;52.140;11.636;2023-07-28T12:57:46;24.80;55.00
9425;DHT22;17139;52.140;11.636;2023-07-28T13:00:15;24.70;54.70
9425;DHT22;17139;52.140;11.636;2023-07-28T13:02:44;24.80;54.90
9425;DHT22;17139;52.140;11.636;2023-07-28T13:05:12;24.90;54.90
9425;DHT22;17139;52.140;11.636;2023-07-28T13:07:40;25.60;51.20
9425;DHT22;17139;52.140;11.636;2023-07-28T13:10:09;25.40;52.80
9425;DHT22;17139;52.140;11.636;2023-07-28T13:12:37;25.80;50.70
9425;DHT22;17139;52.140;11.636;2023-07-28T13:15:05;25.50;52.50
9425;DHT22;17139;52.140;11.636;2023-07-28T13:17:32;25.30;53.30
9425;DHT22;17139;52.140;11.636;2023-07-28T13:20:00;25.10;53.80
9425;DHT22;17139;52.140;11.636;2023-07-28T13:22:28;25.10;54.20
9425;DHT22;17139;52.140;11.636;2023-07-28T13:24:55;25.20;53.90
9425;DHT22;17139;52.140;11.636;2023-07-28T13:27:22;25.10;53.80
9425;DHT22;17139;52.140;11.636;2023-07-28T13:29:49;25.20;54.10
9425;DHT22;17139;52.140;11.636;2023-07-28T13:32:17;25.30;54.10
9425;DHT22;17139;52.140;11.636;2023-07-28T13:34:44;26.10;50.10
9425;DHT22;17139;52.140;11.636;2023-07-28T13:37:13;25.90;52.10
9425;DHT22;17139;52.140;11.636;2023-07-28T13:39:40;25.70;52.50
9425;DHT22;17139;52.140;11.636;2023-07-28T13:42:07;25.50;53.00
9425;DHT22;17139;52.140;11.636;2023-07-28T13:44:34;25.50;53.60
9425;DHT22;17139;52.140;11.636;2023-07-28T13:47:01;25.50;53.60
9425;DHT22;17139;52.140;11.636;2023-07-28T13:49:29;25.50;53.70
9425;DHT22;17139;52.140;11.636;2023-07-28T13:51:56;25.60;53.40
9425;DHT22;17139;52.140;11.636;2023-07-28T13:54:24;25.50;53.20
9425;DHT22;17139;52.140;11.636;2023-07-28T13:56:51;25.50;53.10
9425;DHT22;17139;52.140;11.636;2023-07-28T13:59:20;25.30;53.20
9425;DHT22;17139;52.140;11.636;2023-07-28T14:01:47;25.20;53.00
9425;DHT22;17139;52.140;11.636;2023-07-28T14:04:14;25.20;53.50
9425;DHT22;17139;52.140;11.636;2023-07-28T14:06:41;25.10;53.40
9425;DHT22;17139;52.140;11.636;2023-07-28T14:09:08;25.80;50.10
9425;DHT22;17139;52.140;11.636;2023-07-28T14:11:37;25.60;51.90
9425;DHT22;17139;52.140;11.636;2023-07-28T14:14:04;25.50;53.30
9425;DHT22;17139;52.140;11.636;2023-07-28T14:16:31;25.50;52.80
9425;DHT22;17139;52.140;11.636;2023-07-28T14:18:58;25.50;53.00
9425;DHT22;17139;52.140;11.636;2023-07-28T14:21:25;25.60;53.10
9425;DHT22;17139;52.140;11.636;2023-07-28T14:23:52;25.70;53.00
9425;DHT22;17139;52.140;11.636;2023-07-28T14:26:19;25.80;52.70
9425;DHT22;17139;52.140;11.636;2023-07-28T14:28:47;25.80;52.60
9425;DHT22;17139;52.140;11.636;2023-07-28T14:31:14;26.60;48.80
9425;DHT22;17139;52.140;11.636;2023-07-28T14:33:41;26.30;50.90
9425;DHT22;17139;52.140;11.636;2023-07-28T14:36:08;26.40;50.10
9425;DHT22;17139;52.140;11.636;2023-07-28T14:38:35;26.40;51.20
9425;DHT22;17139;52.140;11.636;2023-07-28T14:41:02;26.30;51.20
9425;DHT22;17139;52.140;11.636;2023-07-28T14:43:29;26.30;51.40
9425;DHT22;17139;52.140;11.636;2023-07-28T14:45:58;26.20;51.90
9425;DHT22;17139;52.140;11.636;2023-07-28T14:48:25;26.00;51.60
9425;DHT22;17139;52.140;11.636;2023-07-28T14:50:52;25.90;52.00
9425;DHT22;17139;52.140;11.636;2023-07-28T14:53:29;25.80;52.90
9425;DHT22;17139;52.140;11.636;2023-07-28T14:55:57;25.80;52.20
9425;DHT22;17139;52.140;11.636;2023-07-28T14:58:24;25.80;52.60
9425;DHT22;17139;52.140;11.636;2023-07-28T15:00:51;26.50;48.70
9425;DHT22;17139;52.140;11.636;2023-07-28T15:03:20;26.10;50.70
9425;DHT22;17139;52.140;11.636;2023-07-28T15:05:47;26.40;49.40
9425;DHT22;17139;52.140;11.636;2023-07-28T15:08:14;26.30;50.80
9425;DHT22;17139;52.140;11.636;2023-07-28T15:10:42;26.30;50.90
9425;DHT22;17139;52.140;11.636;2023-07-28T15:13:09;26.30;51.10
9425;DHT22;17139;52.140;11.636;2023-07-28T15:15:36;26.30;50.90
9425;DHT22;17139;52.140;11.636;2023-07-28T15:18:03;26.30;51.20
9425;DHT22;17139;52.140;11.636;2023-07-28T15:20:32;26.10;51.10
9425;DHT22;17139;52.140;11.636;2023-07-28T15:22:59;26.00;51.40
9425;DHT22;17139;52.140;11.636;2023-07-28T15:25:26;25.90;51.70
9425;DHT22;17139;52.140;11.636;2023-07-28T15:27:53;25.60;52.00
9425;DHT22;17139;52.140;11.636;2023-07-28T15:30:20;25.00;52.70
9425;DHT22;17139;52.140;11.636;2023-07-28T15:32:47;24.40;53.50
9425;DHT22;17139;52.140;11.636;2023-07-28T15:35:15;24.80;53.10